FKYS/NSI METAR and TAF weather

Enter ICAO airport designator
Station Type Date Time Source
FKYS METAR 2018/07/21 22:00 UTC NOAA

FKYS 212200Z /////KT 4000 BR BKN006 22/22 Q1019 RETS TEMPO 2000 BR


Station Type Date Time Source
FKYS Decoded METAR 2018/07/21 22:00 UTC NOAA

Yaounde, Cameroon (FKYS) 03-50N 011-31E 760M
Jul 21, 2018 - 06:00 PM EDT / 2018.07.21 2200 UTC
Visibility: 2 mile(s):0
Sky conditions: mostly cloudy
Weather: mist
Temperature: 71 F (22 C)
Dew Point: 71 F (22 C)
Relative Humidity: 100%
Pressure (altimeter): 30.09 in. Hg (1019 hPa)
ob: FKYS 212200Z /////KT 4000 BR BKN006 22/22 Q1019 RETS TEMPO 2000 BR
cycle: 22

Station Type Date Time Source
FKYS TAF 2018/07/21 18:03 UTC NOAA

TAF FKYS 211700Z 2118/2218 25004KT 9999 BKN016
BECMG 2121/2123 FEW003 BKN006 PROB40 2203/2206 3000 BR
BECMG 2207/2209 BKN016


Example: see airport list